This is the latest recevied weather packets stored in our database for station/object N1TKS. If no packets are shown the sender has not sent any weather packets the latest 10 day(s).
| Time | Temp. | Humidity | Pressure | Rain* | Wind** | Luminosity | Snow |
|---|---|---|---|---|---|---|---|
| 1777926414 | 19.44° C | 49% | 1009.7 hPa | 0 mm | - | - | - |
| 1777925870 | 20° C | 49% | 1009.7 hPa | 0 mm | - | - | - |
| 1777925819 | 20° C | 49% | 1009.7 hPa | 0 mm | - | - | - |
| 1777925514 | 20° C | 48% | 1009.8 hPa | 0 mm | - | - | - |
| 1777924914 | 20° C | 48% | 1009.9 hPa | 0 mm | - | - | - |
| 1777924896 | 21.67° C | 39% | 1009.8 hPa | 0 mm | - | - | - |
| 1777924881 | 21.67° C | 37% | 1009.8 hPa | 0 mm | - | - | - |
| 1777924614 | 20.56° C | 47% | 1009.8 hPa | 0 mm | - | - | - |
| 1777924365 | 20.56° C | 45% | 1009.8 hPa | 0 mm | - | - | - |
| 1777924313 | 20.56° C | 45% | 1009.8 hPa | 0 mm | - | - | - |
| 1777923714 | 21.67° C | 39% | 1009.8 hPa | 0 mm | - | - | - |
| 1777923454 | 21.67° C | 37% | 1009.8 hPa | 0 mm | - | - | - |
| 1777923414 | 21.67° C | 37% | 1009.8 hPa | 0 mm | - | - | - |
| 1777923113 | 21.67° C | 37% | 1009.8 hPa | 0 mm | - | - | - |
| 1777922816 | 21.67° C | 37% | 1009.9 hPa | 0 mm | - | - | - |
| 1777922516 | 21.67° C | 36% | 1010.1 hPa | 0 mm | - | - | - |
| 1777921991 | 21.67° C | 35% | 1010.1 hPa | 0 mm | - | - | - |
| 1777921915 | 21.67° C | 35% | 1010.1 hPa | 0 mm | - | - | - |
| 1777921616 | 21.67° C | 36% | 1010.2 hPa | 0 mm | - | - | - |
| 1777921314 | 21.67° C | 37% | 1010.2 hPa | 0 mm | - | - | - |
| 1777921064 | 21.67° C | 36% | 1010.3 hPa | 0 mm | - | - | - |
| 1777921044 | 21.11° C | 35% | 1010.4 hPa | 0 mm | - | - | - |
| 1777921014 | 21.67° C | 36% | 1010.3 hPa | 0 mm | - | - | - |
| 1777920148 | 21.67° C | 37% | 1010.4 hPa | 0 mm | - | - | - |
| 1777920115 | 21.67° C | 37% | 1010.4 hPa | 0 mm | - | - | - |
* Rain latest hour (hover to see other rain measurements)
** Current wind speed in m/s (hover to see current wind gust speed)